Time;durP1;ratioP1;P1;durP2;ratioP2;P2;SDS_P1;SDS_P2;PMS_P1;PMS_P2;Temp;Humidity;BMP_temperature;BMP_pressure;BME280_temperature;BME280_humidity;BME280_pressure;Samples;Min_cycle;Max_cycle;Signal;HPM_P1;HPM_P2
2022/07/30 00:14:44;;;;;;;3.10;1.90;;;;;;;16.58;73.93;100780.86;655860;1277;138665;-82
2022/07/30 00:29:48;;;;;;;4.90;2.60;;;;;;;16.40;74.53;100772.74;656184;1277;139652;-82
2022/07/30 00:44:52;;;;;;;9.00;3.20;;;;;;;16.13;75.44;100764.40;655590;1277;138343;-81
2022/07/30 00:59:55;;;;;;;9.80;3.30;;;;;;;15.89;76.60;100741.70;656307;1277;138526;-82
2022/07/30 01:15:00;;;;;;;5.70;3.20;;;;;;;15.68;78.34;100736.79;656303;1277;139809;-82
2022/07/30 01:30:05;;;;;;;5.40;2.70;;;;;;;15.51;78.75;100737.55;655969;1277;143143;-81
2022/07/30 01:45:12;;;;;;;8.40;2.90;;;;;;;15.35;79.55;100719.45;655814;1277;139345;-82
2022/07/30 02:00:16;;;;;;;6.60;3.00;;;;;;;15.20;80.27;100695.58;656428;1277;139274;-82
2022/07/30 02:15:25;;;;;;;12.10;3.90;;;;;;;15.02;80.78;100668.27;655717;1277;139725;-81
2022/07/30 02:30:32;;;;;;;10.80;3.50;;;;;;;14.82;81.62;100674.04;655387;1277;140804;-81
2022/07/30 02:45:36;;;;;;;5.50;2.70;;;;;;;14.70;82.55;100669.23;654531;1277;140534;-81
2022/07/30 03:00:41;;;;;;;5.60;2.70;;;;;;;14.66;83.45;100664.17;655360;1277;139517;-82
2022/07/30 03:15:48;;;;;;;7.00;3.80;;;;;;;14.66;84.23;100676.48;655852;1277;140639;-81
2022/07/30 03:30:53;;;;;;;3.80;2.60;;;;;;;14.69;84.75;100693.98;655806;1277;140446;-81
2022/07/30 03:45:57;;;;;;;5.00;2.70;;;;;;;14.77;85.13;100672.95;655125;1277;139372;-80
2022/07/30 04:01:01;;;;;;;3.90;2.80;;;;;;;15.10;85.78;100666.50;655735;1277;139059;-81
2022/07/30 04:16:11;;;;;;;3.00;2.40;;;;;;;15.52;85.66;100678.27;656517;1277;141164;-82
2022/07/30 04:31:35;;;;;;;4.80;2.80;;;;;;;16.07;85.76;100667.31;655522;1277;140156;-83
2022/07/30 04:47:02;;;;;;;7.70;2.60;;;;;;;16.67;85.63;100653.34;656728;1277;140260;-84
2022/07/30 05:02:09;;;;;;;3.50;2.60;;;;;;;17.42;85.06;100651.28;656475;1277;140022;-84
2022/07/30 05:17:13;;;;;;;3.60;1.90;;;;;;;18.14;83.91;100642.77;656240;1277;139845;-82
2022/07/30 05:32:16;;;;;;;6.70;2.10;;;;;;;19.01;82.08;100636.80;657085;1277;139655;-82
2022/07/30 05:47:22;;;;;;;3.70;1.60;;;;;;;19.85;79.58;100625.41;657366;1277;139516;-83
2022/07/30 06:02:25;;;;;;;3.80;1.60;;;;;;;20.46;76.15;100615.53;657668;1277;141162;-83
2022/07/30 06:17:58;;;;;;;7.20;4.20;;;;;;;21.01;73.77;100621.45;658220;1277;139093;-82
2022/07/30 06:33:25;;;;;;;5.30;2.00;;;;;;;21.84;72.01;100631.71;658451;1277;140435;-83
2022/07/30 06:48:31;;;;;;;3.00;1.40;;;;;;;22.71;69.01;100630.41;660053;1277;139032;-83
2022/07/30 07:03:36;;;;;;;3.50;1.20;;;;;;;23.16;65.03;100622.31;659627;1277;139125;-82
2022/07/30 07:18:42;;;;;;;4.10;1.40;;;;;;;23.76;62.27;100612.14;658840;1277;138797;-81
2022/07/30 07:33:47;;;;;;;1.90;1.10;;;;;;;24.43;59.31;100601.12;657102;1277;138397;-81
2022/07/30 07:48:51;;;;;;;2.10;0.90;;;;;;;25.01;56.88;100592.23;658062;1278;138568;-80
2022/07/30 08:04:03;;;;;;;1.10;0.80;;;;;;;25.53;56.20;100580.45;657753;1277;138443;-81
2022/07/30 08:19:41;;;;;;;7.80;1.90;;;;;;;25.52;55.83;100569.58;656918;1277;139916;-81
2022/07/30 08:34:52;;;;;;;3.70;1.40;;;;;;;26.07;54.86;100568.41;656482;1277;138440;-82
2022/07/30 08:50:00;;;;;;;4.40;1.50;;;;;;;26.66;54.73;100555.59;659750;1277;141408;-82
2022/07/30 09:05:05;;;;;;;5.60;1.60;;;;;;;27.09;54.00;100550.95;657793;1277;138497;-85
2022/07/30 09:20:09;;;;;;;1.30;1.10;;;;;;;27.50;53.87;100544.45;657051;1277;138554;-84
2022/07/30 09:35:15;;;;;;;1.10;0.90;;;;;;;28.13;53.04;100544.96;659721;1277;139812;-83
2022/07/30 09:50:54;;;;;;;4.40;1.30;;;;;;;28.51;52.34;100530.45;659304;1277;138794;-81
2022/07/30 10:06:00;;;;;;;4.30;1.50;;;;;;;28.74;50.93;100520.63;656715;1277;139363;-82
2022/07/30 10:21:07;;;;;;;3.70;1.20;;;;;;;28.35;50.65;100523.59;657066;1277;280095;-85
2022/07/30 10:36:49;;;;;;;2.10;0.80;;;;;;;28.20;51.54;100514.91;656077;1278;139416;-83
2022/07/30 10:51:53;;;;;;;3.80;1.30;;;;;;;27.46;51.23;100503.34;656357;1277;138221;-83
2022/07/30 11:07:28;;;;;;;1.40;1.00;;;;;;;27.21;52.00;100500.46;656110;1277;139302;-84
2022/07/30 11:22:37;;;;;;;3.00;1.40;;;;;;;28.26;50.97;100501.67;656549;1278;138336;-87
2022/07/30 11:38:07;;;;;;;3.30;1.10;;;;;;;27.46;52.23;100495.55;656883;1277;139213;-86
2022/07/30 11:53:19;;;;;;;10.80;6.80;;;;;;;26.64;54.38;100491.84;657975;1277;139152;-88
2022/07/30 12:08:23;;;;;;;6.90;1.80;;;;;;;26.69;55.33;100485.59;659208;1277;138406;-84
2022/07/30 12:23:38;;;;;;;1.90;1.40;;;;;;;26.57;55.67;100478.23;659354;1277;139553;-82
2022/07/30 12:38:44;;;;;;;9.40;4.00;;;;;;;26.44;55.99;100471.98;658319;1277;139636;-83
2022/07/30 12:53:48;;;;;;;6.50;3.80;;;;;;;26.81;56.37;100464.36;658421;1277;138595;-87
2022/07/30 13:08:54;;;;;;;4.30;2.10;;;;;;;27.10;56.17;100457.52;658283;1277;139132;-85
2022/07/30 13:23:58;;;;;;;3.90;1.60;;;;;;;26.97;56.11;100447.41;657373;1279;138421;-83
2022/07/30 13:39:02;;;;;;;3.30;1.60;;;;;;;26.89;56.61;100431.34;657982;1278;138647;-91
2022/07/30 13:54:06;;;;;;;5.40;2.80;;;;;;;27.03;56.25;100419.58;657645;1277;139787;-85
2022/07/30 14:09:12;;;;;;;2.70;1.60;;;;;;;26.88;56.20;100394.65;658638;1277;138796;-84
2022/07/30 14:24:15;;;;;;;9.50;4.70;;;;;;;26.66;57.88;100391.39;657217;1277;139723;-85
2022/07/30 14:39:19;;;;;;;5.70;3.30;;;;;;;26.31;61.52;100384.05;656979;1277;139594;-85
2022/07/30 14:54:23;;;;;;;6.40;3.50;;;;;;;26.14;63.60;100373.40;656827;1277;139994;-84
2022/07/30 15:09:26;;;;;;;5.30;2.70;;;;;;;26.41;63.85;100369.55;657459;1277;138460;-85
2022/07/30 15:24:30;;;;;;;5.00;2.60;;;;;;;26.26;62.35;100366.71;657041;1277;141090;-85
2022/07/30 15:39:35;;;;;;;4.10;1.40;;;;;;;26.04;60.65;100354.14;657648;1277;138386;-86
2022/07/30 15:54:39;;;;;;;4.40;2.10;;;;;;;25.77;59.57;100351.89;656431;1277;139299;-86
2022/07/30 16:09:43;;;;;;;7.60;4.60;;;;;;;25.68;60.00;100341.98;657685;1277;139289;-83
2022/07/30 16:24:47;;;;;;;10.90;4.90;;;;;;;25.37;60.23;100333.51;657585;1277;140077;-82
2022/07/30 16:39:52;;;;;;;5.10;3.70;;;;;;;25.14;60.69;100328.55;658121;1277;138560;-84
2022/07/30 16:54:56;;;;;;;10.60;6.80;;;;;;;24.88;62.09;100325.84;657440;1277;139374;-86
2022/07/30 17:09:59;;;;;;;6.90;4.80;;;;;;;24.57;64.88;100325.39;657667;1277;138199;-86
2022/07/30 17:25:03;;;;;;;41.30;25.20;;;;;;;24.33;66.68;100317.28;657361;1277;138441;-85
2022/07/30 17:40:08;;;;;;;19.90;11.10;;;;;;;24.10;67.37;100314.14;658682;1277;138901;-84
2022/07/30 17:55:33;;;;;;;69.10;41.60;;;;;;;23.89;67.68;100309.33;657660;1277;139091;-84
2022/07/30 18:10:37;;;;;;;37.30;17.50;;;;;;;23.72;67.80;100311.98;656975;1277;139884;-82
2022/07/30 18:25:41;;;;;;;30.20;13.30;;;;;;;23.60;67.72;100315.95;659121;1277;139446;-82
2022/07/30 18:40:56;;;;;;;33.70;14.70;;;;;;;23.46;67.85;100312.79;659536;1277;139034;-90
2022/07/30 18:56:00;;;;;;;13.70;6.60;;;;;;;23.30;68.08;100303.62;659190;1277;139646;-89
2022/07/30 19:11:04;;;;;;;14.90;7.30;;;;;;;23.17;68.12;100311.76;657497;1277;138821;-86
2022/07/30 19:26:07;;;;;;;12.80;6.30;;;;;;;23.03;68.20;100318.77;657582;1277;138485;-84
2022/07/30 19:41:11;;;;;;;27.40;9.50;;;;;;;22.96;68.40;100328.95;658458;1277;139437;-85
2022/07/30 19:56:16;;;;;;;12.10;4.60;;;;;;;22.86;68.69;100329.10;657810;1278;138949;-85
2022/07/30 20:11:21;;;;;;;8.80;3.80;;;;;;;22.75;68.71;100326.48;656498;1277;139662;-84
2022/07/30 20:26:38;;;;;;;7.00;3.20;;;;;;;22.63;69.51;100321.70;656218;1277;138459;-83
2022/07/30 20:41:44;;;;;;;4.30;2.50;;;;;;;22.34;71.80;100330.46;656198;1277;138896;-85
2022/07/30 20:56:47;;;;;;;13.00;5.00;;;;;;;22.15;74.15;100326.83;657381;1277;138920;-85
2022/07/30 21:11:51;;;;;;;8.60;4.30;;;;;;;22.05;76.05;100329.52;657224;1277;139121;-84
2022/07/30 21:26:54;;;;;;;8.70;3.00;;;;;;;21.75;77.18;100328.40;656214;1277;138400;-85
2022/07/30 21:41:58;;;;;;;7.70;3.20;;;;;;;21.47;77.63;100327.33;657939;1277;138456;-84
2022/07/30 21:57:02;;;;;;;11.00;4.60;;;;;;;21.42;78.32;100327.00;661917;1277;140234;-85
2022/07/30 22:12:06;;;;;;;5.80;3.50;;;;;;;21.36;79.31;100320.35;659081;1277;139282;-84
2022/07/30 22:27:14;;;;;;;11.70;5.70;;;;;;;21.28;80.13;100312.30;657671;1277;363878;-83
2022/07/30 22:42:19;;;;;;;4.80;3.20;;;;;;;21.04;82.07;100303.19;657628;1277;138745;-83
2022/07/30 22:57:26;;;;;;;7.70;4.10;;;;;;;20.87;83.00;100297.30;657851;1277;139024;-83
2022/07/30 23:12:44;;;;;;;11.40;4.70;;;;;;;20.79;83.47;100292.56;657865;1277;140621;-83
2022/07/30 23:27:47;;;;;;;6.10;2.20;;;;;;;20.56;83.66;100295.30;658834;1276;141795;-83
2022/07/30 23:42:51;;;;;;;4.90;2.10;;;;;;;20.25;84.69;100289.10;658283;1276;139049;-85
2022/07/30 23:57:55;;;;;;;3.30;2.00;;;;;;;19.95;87.34;100283.23;659392;1277;140605;-86
